Search for airport 
image banner adimage banner adimage banner ad
image banner ad

8PN0 - Lost Acres

Located in Chambersburg, United States

ICAO - 8PN0, IATA -

Data provided by Airmate  

General information

Coordinates: N39°56'19" W77°36'57"
Elevation is 730 feet MSL.
Magnetic variation is -09° East
View others Airports in Pennsylvania

Operational data

Special qualification required
Current time UTC:
Current local time:
METAR: KHGR 182353Z 19003KT 10SM CLR 24/03 A3028 RMK AO2 SLP261 T02440028 10261 20239 56005
View NOTAMs / SUP AIP / TFR affecting this airport [VIEW]
Communications frequencies: [VIEW]

Runways:

RWY identifierQFULength (ft)Width (ft)SurfaceLDA (ft)
011800100GRASS
19188°1800100GRASS

Airport contact information

Address: Chambersburg United States

Satellite view of 8PN0